Commerce City, CO (80037)

6:01 PM MST on December 25, 2014 (GMT -0700)
Derby | Change Station
CLOSE
Current Station
Personal Weather Station
Location: Commerce City, CO
Elevation: 5138 ft
Nearby Weather Stations
Active Advisory: Winter Weather Advisory Active Notice: Local Storm Report

Elev 5138 ft 39.84 °N, 104.92 °W | Updated 1 minute ago

Light Snow
Light Snow Mist
25.4 °F
Feels Like 14 °F
N
13.0
Wind Variable Wind from NNE
Gusts 22.0 mph

Today
High -- | Low -- °F
--% Chance of Precip.
Yesterday
High -- | Low -- °F
Precip. -- in
7:19 AM 4:40 PM
Waxing Crescent, 20% visible
Pressure 29.71 in
Visibility 2.0 miles
Clouds Mostly Cloudy 600 ft
Mostly Cloudy 1400 ft
Overcast 2100 ft
Windchill 14 °F
Dew Point 24 °F
Humidity 93%
Rainfall 0.00 in
Snow Depth Not available.
UV 0 out of 12
Pollen .10 out of 12
Air Quality Not available.
Flu Activity Not available.
METAR KDEN 260053Z 02018KT 2SM -SN BR BKN006 BKN014 OVC021 M04/M05 A2968 RMK AO2 PK WND 03026/0045 SLP059 P0001 T10391050

More Conditions Fewer Conditions

Pressure 29.71 in
Visibility 2.0 miles
Clouds Mostly Cloudy 600 ft
Mostly Cloudy 1400 ft
Overcast 2100 ft
Windchill 14 °F
Dew Point 24 °F
Humidity 93%
Rainfall 0.00 in
Snow Depth Not available.
UV 0 out of 12
Pollen .10 out of 12
Air Quality Not available.
Flu Activity Not available.
METAR KDEN 260053Z 02018KT 2SM -SN BR BKN006 BKN014 OVC021 M04/M05 A2968 RMK AO2 PK WND 03026/0045 SLP059 P0001 T10391050

More Conditions Fewer Conditions

10-Day Weather Forecast

Almanac

Astronomy

Dec. 25, 2014 Rise Set
Actual Time
Civil Twilight
Nautical Twilight
Astronomical Twilight
Moon
Length of Visible Light
Length of Day
Tomorrow will be .
, % of the Moon is Illuminated

Today's Extremes

State Highs State Lows

Community

WunderPhotos

Upload Photos

1,780,487 photos uploaded!

WunderBlogs® & News

Nearby

Air Quality

  Air Quality AQ Index Pollutant
Not available.

Snow Depth

Station Depth Elevation

Earthquake Activity

City Distance Mag. Time & Date
Minimum magnitude displayed is 2.5.

Coastal Water Temperatures

Place Temperature

Nearby Weather Stations